createdAt,value
2018-05-25T00:00:10.065Z,70.00
2018-05-25T00:00:42.647Z,70.20
2018-05-25T00:01:15.225Z,70.50
2018-05-25T00:01:47.785Z,71.00
2018-05-25T00:02:20.312Z,71.40
2018-05-25T00:02:52.865Z,71.30
2018-05-25T00:03:25.417Z,70.80
2018-05-25T00:03:57.964Z,70.50
2018-05-25T00:04:30.529Z,70.50
2018-05-25T00:05:03.088Z,70.60
2018-05-25T00:05:35.615Z,70.70
2018-05-25T00:06:08.160Z,70.60
2018-05-25T00:06:40.718Z,70.20
2018-05-25T00:07:13.276Z,70.00
2018-05-25T00:07:45.805Z,70.10
2018-05-25T00:08:19.102Z,70.00
2018-05-25T00:08:51.632Z,70.10
2018-05-25T00:09:24.177Z,70.00
2018-05-25T00:09:56.787Z,69.90
2018-05-25T00:10:29.333Z,69.80
2018-05-25T00:11:01.892Z,69.80
2018-05-25T00:11:34.424Z,70.00
2018-05-25T00:12:07.894Z,69.90
2018-05-25T00:12:40.454Z,70.10
2018-05-25T00:13:13.011Z,70.00
2018-05-25T00:13:45.553Z,70.10
2018-05-25T00:14:18.102Z,70.00
2018-05-25T00:14:51.425Z,70.00
2018-05-25T00:15:23.981Z,70.20
2018-05-25T00:15:56.503Z,70.50
2018-05-25T00:16:29.063Z,70.80
2018-05-25T00:17:01.645Z,71.30
2018-05-25T00:17:34.180Z,71.40
2018-05-25T00:18:08.434Z,71.20
2018-05-25T00:18:40.977Z,71.00
2018-05-25T00:19:13.514Z,71.30
2018-05-25T00:19:46.068Z,71.60
2018-05-25T00:20:18.629Z,72.00
2018-05-25T00:20:51.169Z,71.70
2018-05-25T00:21:23.735Z,71.40
2018-05-25T00:21:56.271Z,71.30
2018-05-25T00:22:28.805Z,71.80
2018-05-25T00:23:01.361Z,71.80
2018-05-25T00:23:33.917Z,72.70
2018-05-25T00:24:06.449Z,71.80
2018-05-25T00:24:39.027Z,71.40
2018-05-25T00:25:12.049Z,71.40
2018-05-25T00:25:44.571Z,71.30
2018-05-25T00:26:17.121Z,71.50
2018-05-25T00:26:49.676Z,71.70
2018-05-25T00:27:22.196Z,72.20
2018-05-25T00:27:54.748Z,72.40
2018-05-25T00:28:27.309Z,72.50
2018-05-25T00:28:59.856Z,72.50
2018-05-25T00:29:32.453Z,72.50
2018-05-25T00:30:04.986Z,72.50
2018-05-25T00:30:37.524Z,72.20
2018-05-25T00:31:10.047Z,72.30
2018-05-25T00:31:42.604Z,72.40
2018-05-25T00:32:15.143Z,72.30
2018-05-25T00:32:47.661Z,72.50
2018-05-25T00:33:20.231Z,72.50
2018-05-25T00:33:52.799Z,72.60
2018-05-25T00:34:26.462Z,72.90
2018-05-25T00:34:58.995Z,72.90
2018-05-25T00:35:31.586Z,73.00
2018-05-25T00:36:04.167Z,73.20
2018-05-25T00:36:36.697Z,73.70
2018-05-25T00:37:09.239Z,72.90
2018-05-25T00:37:41.787Z,72.50
2018-05-25T00:38:14.312Z,72.10
2018-05-25T00:38:46.876Z,71.70
2018-05-25T00:39:19.423Z,71.40
2018-05-25T00:39:51.963Z,71.50
2018-05-25T00:40:25.302Z,72.60
2018-05-25T00:40:57.819Z,72.60
2018-05-25T00:41:30.348Z,73.10
2018-05-25T00:42:02.900Z,73.20
2018-05-25T00:42:35.432Z,73.20
2018-05-25T00:43:07.956Z,73.30
2018-05-25T00:43:40.477Z,73.70
2018-05-25T00:44:12.999Z,73.60
2018-05-25T00:44:45.537Z,73.40
2018-05-25T00:45:18.064Z,73.20
2018-05-25T00:45:50.623Z,73.20
2018-05-25T00:46:23.182Z,73.60
2018-05-25T00:46:55.744Z,73.90
2018-05-25T00:47:28.272Z,73.90
2018-05-25T00:48:01.577Z,73.80
2018-05-25T00:48:34.144Z,73.80
2018-05-25T00:49:06.679Z,73.90
2018-05-25T00:49:39.244Z,74.00
2018-05-25T00:50:11.788Z,74.10
2018-05-25T00:50:44.335Z,73.70
2018-05-25T00:51:16.921Z,73.40
2018-05-25T00:51:49.443Z,73.20
2018-05-25T00:52:21.992Z,73.20
2018-05-25T00:52:54.550Z,73.00
2018-05-25T00:53:27.100Z,72.50
2018-05-25T00:53:59.647Z,72.10
2018-05-25T00:54:33.011Z,72.60
2018-05-25T00:55:17.420Z,72.60
2018-05-25T00:55:49.973Z,72.70
2018-05-25T00:56:22.511Z,72.50
2018-05-25T00:56:55.056Z,72.50
2018-05-25T00:57:27.652Z,72.40
2018-05-25T00:58:00.176Z,72.10
2018-05-25T00:58:32.699Z,72.10
2018-05-25T00:59:05.242Z,72.60
2018-05-25T00:59:37.768Z,72.20
2018-05-25T01:00:11.104Z,71.70
2018-05-25T01:00:43.651Z,71.80
2018-05-25T01:01:16.209Z,71.80
2018-05-25T01:01:48.764Z,71.90
2018-05-25T01:02:21.301Z,72.20
2018-05-25T01:02:53.858Z,72.30
2018-05-25T01:03:26.466Z,72.40
2018-05-25T01:03:59.016Z,72.80
2018-05-25T01:04:31.602Z,72.60
2018-05-25T01:05:04.148Z,72.10
2018-05-25T01:05:36.707Z,72.00
2018-05-25T01:06:09.237Z,71.70
2018-05-25T01:06:41.765Z,71.60
2018-05-25T01:07:14.296Z,71.80
2018-05-25T01:07:46.825Z,71.90
2018-05-25T01:08:19.358Z,71.80
2018-05-25T01:08:51.920Z,71.50
2018-05-25T01:09:24.450Z,71.50
2018-05-25T01:09:56.980Z,71.30
2018-05-25T01:10:29.527Z,71.40
2018-05-25T01:11:02.080Z,71.90
2018-05-25T01:11:34.613Z,72.30
2018-05-25T01:12:08.817Z,72.70
2018-05-25T01:12:41.377Z,72.50
2018-05-25T01:13:13.930Z,72.20
2018-05-25T01:13:46.483Z,72.00
2018-05-25T01:14:19.796Z,72.70
2018-05-25T01:14:52.329Z,72.60
2018-05-25T01:15:24.883Z,72.60
2018-05-25T01:15:57.404Z,72.60
2018-05-25T01:16:29.935Z,72.50
2018-05-25T01:17:02.509Z,72.70
2018-05-25T01:17:35.055Z,72.70
2018-05-25T01:18:07.620Z,72.80
2018-05-25T01:18:40.148Z,73.10
2018-05-25T01:19:13.453Z,73.00
2018-05-25T01:19:46.009Z,73.10
2018-05-25T01:20:18.556Z,72.10
2018-05-25T01:20:51.118Z,71.30
2018-05-25T01:21:23.680Z,71.30
2018-05-25T01:21:56.223Z,71.50
2018-05-25T01:22:28.756Z,71.70
2018-05-25T01:23:01.316Z,72.10
2018-05-25T01:23:33.859Z,71.80
2018-05-25T01:24:08.110Z,70.50
2018-05-25T01:24:40.654Z,70.60
2018-05-25T01:25:13.220Z,70.40
2018-05-25T01:25:45.764Z,70.60
2018-05-25T01:26:19.082Z,70.60
2018-05-25T01:26:51.599Z,70.60
2018-05-25T01:27:24.157Z,70.60
2018-05-25T01:27:56.693Z,70.60
2018-05-25T01:28:29.224Z,70.60
2018-05-25T01:29:01.791Z,70.50
2018-05-25T01:29:34.971Z,70.60
2018-05-25T01:30:07.576Z,70.80
2018-05-25T01:30:40.168Z,70.70
2018-05-25T01:31:12.695Z,70.60
2018-05-25T01:31:45.976Z,70.50
2018-05-25T01:32:18.516Z,70.50
2018-05-25T01:32:51.083Z,70.80
2018-05-25T01:33:23.624Z,70.80
2018-05-25T01:33:56.787Z,70.60
2018-05-25T01:34:29.363Z,70.60
2018-05-25T01:35:01.906Z,70.80
2018-05-25T01:35:34.429Z,71.10
2018-05-25T01:36:06.964Z,71.20
2018-05-25T01:36:39.493Z,72.00
2018-05-25T01:37:12.069Z,71.20
2018-05-25T01:37:44.631Z,70.60
2018-05-25T01:38:17.154Z,70.50
2018-05-25T01:38:50.667Z,70.20
2018-05-25T01:39:23.196Z,70.40
2018-05-25T01:39:55.721Z,70.30
2018-05-25T01:40:28.284Z,70.50
2018-05-25T01:41:00.813Z,71.00
2018-05-25T01:41:33.335Z,71.60
2018-05-25T01:42:05.869Z,71.50
2018-05-25T01:42:38.441Z,71.50
2018-05-25T01:43:10.958Z,71.70
2018-05-25T01:43:43.499Z,71.90
2018-05-25T01:44:16.057Z,71.20
2018-05-25T01:44:48.595Z,70.80
2018-05-25T01:45:21.136Z,70.90
2018-05-25T01:45:53.719Z,70.90
2018-05-25T01:46:26.243Z,70.70
2018-05-25T01:46:58.792Z,70.60
2018-05-25T01:47:31.323Z,70.80
2018-05-25T01:48:03.892Z,70.50
2018-05-25T01:48:36.419Z,70.40
2018-05-25T01:49:08.948Z,70.40
2018-05-25T01:49:42.250Z,70.60
2018-05-25T01:50:14.778Z,70.70
2018-05-25T01:50:47.333Z,70.70
2018-05-25T01:51:19.905Z,70.70
2018-05-25T01:51:52.514Z,70.80
2018-05-25T01:52:25.040Z,70.90
2018-05-25T01:52:57.592Z,70.70
2018-05-25T01:53:30.198Z,70.90
2018-05-25T01:54:02.747Z,71.10
2018-05-25T01:54:35.280Z,71.50
2018-05-25T01:55:07.801Z,71.40
2018-05-25T01:55:40.339Z,71.60
2018-05-25T01:56:12.891Z,71.90
2018-05-25T01:56:46.189Z,72.20
2018-05-25T01:57:18.707Z,72.20
2018-05-25T01:57:51.257Z,72.50
2018-05-25T01:58:23.788Z,72.30
2018-05-25T01:58:56.363Z,71.60
2018-05-25T01:59:28.928Z,71.00
2018-05-25T02:00:02.244Z,70.60
2018-05-25T02:00:36.317Z,70.40
2018-05-25T02:01:08.872Z,70.40
2018-05-25T02:01:41.409Z,70.40
2018-05-25T02:02:13.957Z,70.70
2018-05-25T02:02:46.485Z,71.20
2018-05-25T02:03:19.011Z,71.40
2018-05-25T02:03:52.307Z,71.00
2018-05-25T02:04:24.855Z,70.90
2018-05-25T02:04:57.429Z,71.00
2018-05-25T02:05:29.990Z,71.20
2018-05-25T02:06:02.568Z,71.10
2018-05-25T02:06:35.129Z,70.60
2018-05-25T02:07:07.672Z,70.50
2018-05-25T02:07:40.235Z,70.70
2018-05-25T02:08:12.785Z,70.50
2018-05-25T02:08:45.312Z,70.20
2018-05-25T02:09:17.856Z,70.00
2018-05-25T02:09:50.408Z,70.10
2018-05-25T02:10:22.940Z,71.00
2018-05-25T02:10:55.497Z,70.10
2018-05-25T02:11:28.039Z,70.30
2018-05-25T02:12:00.587Z,70.40
2018-05-25T02:12:33.122Z,70.60
2018-05-25T02:13:05.986Z,70.50
2018-05-25T02:13:38.511Z,70.30
2018-05-25T02:14:11.043Z,70.20
2018-05-25T02:14:43.596Z,70.20
2018-05-25T02:15:16.131Z,70.20
2018-05-25T02:15:48.685Z,70.20
2018-05-25T02:16:21.245Z,70.30
2018-05-25T02:16:53.793Z,70.50
2018-05-25T02:17:27.075Z,70.60
2018-05-25T02:17:59.609Z,71.30
2018-05-25T02:18:32.186Z,70.20
2018-05-25T02:19:04.689Z,70.10
2018-05-25T02:19:37.213Z,69.90
2018-05-25T02:20:10.522Z,69.70
2018-05-25T02:20:43.047Z,70.00
2018-05-25T02:21:15.596Z,70.30
2018-05-25T02:21:48.176Z,70.20
2018-05-25T02:22:20.714Z,70.20
2018-05-25T02:22:53.241Z,70.10
2018-05-25T02:23:25.784Z,70.00
2018-05-25T02:23:58.333Z,70.00
2018-05-25T02:24:30.866Z,69.80
2018-05-25T02:25:03.416Z,70.00
2018-05-25T02:25:35.967Z,70.10
2018-05-25T02:26:08.523Z,70.10
2018-05-25T02:26:41.049Z,70.00
2018-05-25T02:27:13.652Z,70.10
2018-05-25T02:27:46.177Z,70.50
2018-05-25T02:28:18.715Z,70.50
2018-05-25T02:28:51.260Z,70.40
2018-05-25T02:29:23.828Z,70.20
2018-05-25T02:29:56.384Z,70.10
2018-05-25T02:30:28.946Z,70.00
2018-05-25T02:31:01.477Z,70.00
2018-05-25T02:31:34.807Z,69.40
2018-05-25T02:32:08.276Z,69.60
2018-05-25T02:32:41.316Z,70.00
2018-05-25T02:33:14.639Z,69.90
2018-05-25T02:33:47.185Z,70.00
2018-05-25T02:34:19.757Z,70.30
2018-05-25T02:34:52.284Z,70.80
2018-05-25T02:35:24.831Z,70.00
2018-05-25T02:35:57.359Z,70.00
2018-05-25T02:36:29.908Z,69.90
2018-05-25T02:37:02.439Z,70.00
2018-05-25T02:37:35.765Z,70.00
2018-05-25T02:38:08.279Z,70.00
2018-05-25T02:38:40.861Z,70.00
2018-05-25T02:39:13.382Z,70.00
2018-05-25T02:39:46.204Z,69.80
2018-05-25T02:40:18.732Z,69.80
2018-05-25T02:40:52.020Z,69.90
2018-05-25T02:41:24.578Z,69.80
2018-05-25T02:41:57.144Z,69.90
2018-05-25T02:42:29.672Z,69.90
2018-05-25T02:43:02.240Z,70.00
2018-05-25T02:43:34.798Z,70.10
2018-05-25T02:44:09.020Z,70.40
2018-05-25T02:44:41.557Z,70.10
2018-05-25T02:45:14.080Z,71.10
2018-05-25T02:45:46.624Z,71.30
2018-05-25T02:46:19.164Z,70.90
2018-05-25T02:46:51.697Z,71.20
2018-05-25T02:47:24.247Z,71.20
2018-05-25T02:47:56.777Z,71.20
2018-05-25T02:48:30.076Z,71.30
2018-05-25T02:49:02.609Z,72.10
2018-05-25T02:49:35.137Z,70.90
2018-05-25T02:50:07.808Z,70.80
2018-05-25T02:50:40.366Z,70.80
2018-05-25T02:51:12.921Z,70.80
2018-05-25T02:51:45.448Z,71.00
2018-05-25T02:52:18.011Z,71.10
2018-05-25T02:52:50.591Z,71.30
2018-05-25T02:53:23.174Z,71.20
2018-05-25T02:53:55.732Z,71.00
2018-05-25T02:54:28.316Z,70.70
2018-05-25T02:55:00.870Z,70.80
2018-05-25T02:55:33.417Z,71.20
2018-05-25T02:56:05.980Z,71.60
2018-05-25T02:56:38.541Z,71.90
2018-05-25T02:57:11.119Z,71.50
2018-05-25T02:57:43.643Z,71.00
2018-05-25T02:58:16.203Z,71.00
2018-05-25T02:58:48.758Z,71.10
2018-05-25T02:59:21.302Z,71.00
2018-05-25T02:59:53.873Z,71.30
2018-05-25T03:00:26.412Z,71.30
2018-05-25T03:00:58.942Z,71.10
2018-05-25T03:01:31.482Z,70.80
2018-05-25T03:02:04.799Z,71.10
2018-05-25T03:02:37.353Z,71.00
2018-05-25T03:03:09.917Z,71.20
2018-05-25T03:03:42.455Z,71.20
2018-05-25T03:04:15.026Z,71.40
2018-05-25T03:04:47.610Z,71.60
2018-05-25T03:05:20.165Z,71.40
2018-05-25T03:05:52.696Z,71.00
2018-05-25T03:06:25.220Z,70.90
2018-05-25T03:06:57.783Z,71.00
2018-05-25T03:07:30.357Z,70.70
2018-05-25T03:08:02.908Z,70.50
2018-05-25T03:08:35.460Z,70.60
2018-05-25T03:09:08.015Z,70.80
2018-05-25T03:09:40.600Z,70.70
2018-05-25T03:10:13.172Z,70.70
2018-05-25T03:10:46.187Z,70.60
2018-05-25T03:11:18.726Z,70.50
2018-05-25T03:11:51.249Z,70.50
2018-05-25T03:12:23.821Z,70.50
2018-05-25T03:12:56.372Z,70.60
2018-05-25T03:13:28.904Z,70.40
2018-05-25T03:14:01.428Z,70.30
2018-05-25T03:14:33.979Z,70.40
2018-05-25T03:15:06.545Z,70.40
2018-05-25T03:15:39.072Z,70.50
2018-05-25T03:16:12.121Z,70.50
2018-05-25T03:16:44.680Z,70.40
2018-05-25T03:17:17.235Z,70.60
2018-05-25T03:17:49.760Z,70.60
2018-05-25T03:18:22.283Z,70.80
2018-05-25T03:18:54.828Z,70.80
2018-05-25T03:19:27.391Z,70.80
2018-05-25T03:20:01.254Z,71.60
2018-05-25T03:20:33.795Z,71.70
2018-05-25T03:21:06.350Z,71.70
2018-05-25T03:21:38.881Z,71.40
2018-05-25T03:22:11.412Z,71.20
2018-05-25T03:22:43.977Z,71.30
2018-05-25T03:23:16.743Z,71.00
2018-05-25T03:23:49.282Z,70.90
2018-05-25T03:24:21.808Z,71.00
2018-05-25T03:24:54.323Z,70.80
2018-05-25T03:25:26.923Z,70.60
2018-05-25T03:25:59.763Z,70.60
2018-05-25T03:26:32.313Z,70.70
2018-05-25T03:27:04.867Z,70.70
2018-05-25T03:27:37.445Z,70.70
2018-05-25T03:28:09.989Z,70.60
2018-05-25T03:28:42.539Z,70.60
2018-05-25T03:29:15.067Z,70.60
2018-05-25T03:29:47.589Z,70.60
2018-05-25T03:30:20.144Z,70.60
2018-05-25T03:30:52.729Z,70.60
2018-05-25T03:31:25.300Z,70.70
2018-05-25T03:31:57.863Z,70.80
2018-05-25T03:32:30.399Z,70.80
2018-05-25T03:33:02.929Z,70.80
2018-05-25T03:33:35.453Z,70.80
2018-05-25T03:34:08.013Z,70.80
2018-05-25T03:34:40.542Z,70.90
2018-05-25T03:35:13.091Z,70.80
2018-05-25T03:35:46.386Z,71.00
2018-05-25T03:36:18.965Z,70.90
2018-05-25T03:36:51.487Z,70.90
2018-05-25T03:37:24.821Z,71.10
2018-05-25T03:37:57.340Z,71.10
2018-05-25T03:38:29.873Z,71.00
2018-05-25T03:39:02.420Z,71.00
2018-05-25T03:39:34.970Z,70.90
2018-05-25T03:40:08.290Z,70.80
2018-05-25T03:40:40.829Z,70.80
2018-05-25T03:41:13.362Z,70.80
2018-05-25T03:41:45.906Z,70.90
2018-05-25T03:42:18.441Z,70.90
2018-05-25T03:42:50.991Z,70.90
2018-05-25T03:43:23.535Z,70.90
2018-05-25T03:43:56.089Z,71.00
2018-05-25T03:44:28.628Z,71.20
2018-05-25T03:45:01.155Z,71.20
2018-05-25T03:45:33.694Z,71.40
2018-05-25T03:46:06.226Z,71.30
2018-05-25T03:46:38.739Z,71.40
2018-05-25T03:47:11.278Z,71.40
2018-05-25T03:47:43.822Z,71.60
2018-05-25T03:48:16.391Z,71.50
2018-05-25T03:48:48.947Z,71.60
2018-05-25T03:49:21.479Z,71.80
2018-05-25T03:49:54.043Z,71.70
2018-05-25T03:50:26.573Z,72.10
2018-05-25T03:50:59.128Z,72.60
2018-05-25T03:51:31.662Z,72.40
2018-05-25T03:52:04.195Z,72.00
2018-05-25T03:52:37.529Z,71.90
2018-05-25T03:53:10.057Z,71.80
2018-05-25T03:53:42.611Z,71.90
2018-05-25T03:54:15.171Z,71.70
2018-05-25T03:54:47.732Z,71.30
2018-05-25T03:55:20.272Z,71.20
2018-05-25T03:55:53.069Z,71.30
2018-05-25T03:56:26.371Z,71.20
2018-05-25T03:56:58.908Z,71.20
2018-05-25T03:57:31.458Z,71.10
2018-05-25T03:58:04.012Z,71.00
2018-05-25T03:58:48.487Z,71.10
2018-05-25T03:59:32.788Z,71.20
2018-05-25T04:00:17.064Z,71.30
2018-05-25T04:01:01.322Z,71.10
2018-05-25T04:01:45.562Z,71.10
2018-05-25T04:02:18.091Z,71.10
2018-05-25T04:02:50.614Z,71.30
2018-05-25T04:03:24.763Z,71.40
2018-05-25T04:03:57.313Z,71.50
2018-05-25T04:04:29.848Z,71.40
2018-05-25T04:05:02.370Z,71.30
2018-05-25T04:05:34.955Z,71.30
2018-05-25T04:06:08.637Z,71.40
2018-05-25T04:06:41.192Z,71.40
2018-05-25T04:07:13.718Z,71.60
2018-05-25T04:07:46.243Z,71.50
2018-05-25T04:08:18.788Z,71.40
2018-05-25T04:08:51.345Z,71.30
2018-05-25T04:09:23.881Z,71.30
2018-05-25T04:09:56.436Z,71.20
2018-05-25T04:10:29.065Z,71.20
2018-05-25T04:11:01.647Z,71.20
2018-05-25T04:11:34.173Z,71.30
2018-05-25T04:12:06.873Z,71.40
2018-05-25T04:12:39.417Z,71.40
2018-05-25T04:13:11.932Z,71.90
2018-05-25T04:13:45.211Z,72.10
2018-05-25T04:14:17.824Z,72.10
2018-05-25T04:14:50.320Z,72.20
2018-05-25T04:15:23.619Z,71.70
2018-05-25T04:15:56.176Z,71.80
2018-05-25T04:16:28.736Z,71.80
2018-05-25T04:17:01.284Z,71.80
2018-05-25T04:17:33.884Z,72.00
2018-05-25T04:18:06.421Z,72.20
2018-05-25T04:18:39.023Z,72.00
2018-05-25T04:19:11.568Z,72.10
2018-05-25T04:19:44.126Z,72.20
2018-05-25T04:20:16.647Z,72.20
2018-05-25T04:20:49.197Z,72.20
2018-05-25T04:21:21.746Z,72.10
2018-05-25T04:21:54.305Z,72.10
2018-05-25T04:22:26.837Z,72.00
2018-05-25T04:22:59.401Z,71.80
2018-05-25T04:23:31.981Z,71.70
2018-05-25T04:24:04.530Z,71.50
2018-05-25T04:24:37.091Z,71.40
2018-05-25T04:25:09.631Z,71.30
2018-05-25T04:25:42.148Z,71.50
2018-05-25T04:26:14.688Z,71.50
2018-05-25T04:26:47.253Z,71.50
2018-05-25T04:27:19.816Z,71.40
2018-05-25T04:27:52.367Z,71.50
2018-05-25T04:28:24.903Z,71.50
2018-05-25T04:28:57.424Z,72.10
2018-05-25T04:29:29.963Z,71.40
2018-05-25T04:30:02.500Z,71.50
2018-05-25T04:30:35.027Z,71.50
2018-05-25T04:31:07.590Z,71.60
2018-05-25T04:31:40.140Z,71.70
2018-05-25T04:32:12.697Z,71.90
2018-05-25T04:32:45.248Z,72.10
2018-05-25T04:33:17.798Z,72.00
2018-05-25T04:33:51.090Z,71.70
2018-05-25T04:34:23.663Z,71.90
2018-05-25T04:34:56.199Z,72.20
2018-05-25T04:35:28.720Z,72.00
2018-05-25T04:36:01.291Z,72.00
2018-05-25T04:36:33.848Z,71.90
2018-05-25T04:37:06.380Z,71.70
2018-05-25T04:37:39.240Z,71.80
2018-05-25T04:38:11.816Z,71.70
2018-05-25T04:38:44.415Z,71.70
2018-05-25T04:39:16.981Z,71.50
2018-05-25T04:39:49.533Z,71.50
2018-05-25T04:40:22.048Z,71.60
2018-05-25T04:40:55.349Z,71.70
2018-05-25T04:41:27.878Z,71.80
2018-05-25T04:42:00.437Z,71.80
2018-05-25T04:42:33.783Z,71.40
2018-05-25T04:43:06.379Z,71.50
2018-05-25T04:43:38.924Z,71.40
2018-05-25T04:44:11.466Z,71.40
2018-05-25T04:44:44.000Z,71.30
2018-05-25T04:45:16.555Z,71.50
2018-05-25T04:45:49.080Z,71.50
2018-05-25T04:46:21.632Z,71.40
2018-05-25T04:46:54.161Z,71.30
2018-05-25T04:47:26.711Z,71.30
2018-05-25T04:47:59.279Z,71.40
2018-05-25T04:48:31.867Z,71.30
2018-05-25T04:49:04.433Z,71.30
2018-05-25T04:49:36.976Z,71.20
2018-05-25T04:50:09.515Z,71.10
2018-05-25T04:50:42.040Z,71.30
2018-05-25T04:51:14.594Z,71.60
2018-05-25T04:51:47.650Z,71.50
2018-05-25T04:52:20.221Z,71.40
2018-05-25T04:52:52.807Z,71.20
2018-05-25T04:53:25.346Z,71.20
2018-05-25T04:53:57.921Z,71.30
2018-05-25T04:54:30.459Z,71.50
2018-05-25T04:55:03.022Z,71.30
2018-05-25T04:55:35.582Z,71.30
2018-05-25T04:56:08.540Z,71.40
2018-05-25T04:56:41.072Z,71.50
2018-05-25T04:57:13.653Z,71.10
2018-05-25T04:57:46.223Z,71.10
2018-05-25T04:58:18.755Z,71.00
2018-05-25T04:58:51.352Z,70.90
2018-05-25T04:59:23.852Z,71.30
2018-05-25T04:59:56.406Z,71.20
2018-05-25T05:00:28.981Z,70.90
2018-05-25T05:01:01.530Z,70.70
2018-05-25T05:01:34.061Z,70.60
2018-05-25T05:02:06.587Z,70.60
2018-05-25T05:02:39.102Z,70.80
2018-05-25T05:03:12.428Z,70.60
2018-05-25T05:03:44.976Z,70.50
2018-05-25T05:04:17.554Z,70.50
2018-05-25T05:04:50.104Z,70.80
2018-05-25T05:05:22.637Z,70.70
2018-05-25T05:05:55.197Z,70.80
2018-05-25T05:06:27.777Z,71.10
2018-05-25T05:07:00.312Z,71.10
2018-05-25T05:07:32.885Z,71.00
2018-05-25T05:08:05.436Z,70.80
2018-05-25T05:08:38.846Z,70.80
2018-05-25T05:09:11.380Z,70.90
2018-05-25T05:09:43.934Z,70.90
2018-05-25T05:10:16.482Z,70.80
2018-05-25T05:10:49.032Z,70.60
2018-05-25T05:11:21.574Z,70.50
2018-05-25T05:11:54.145Z,70.50
2018-05-25T05:12:26.693Z,70.40
2018-05-25T05:12:59.240Z,70.20
2018-05-25T05:13:31.771Z,70.20
2018-05-25T05:14:04.333Z,70.20
2018-05-25T05:14:36.893Z,70.30
2018-05-25T05:15:10.275Z,71.20
2018-05-25T05:15:42.813Z,70.50
2018-05-25T05:16:15.391Z,70.50
2018-05-25T05:16:47.949Z,70.40
2018-05-25T05:17:20.489Z,70.60
2018-05-25T05:17:53.045Z,70.40
2018-05-25T05:18:25.595Z,70.50
2018-05-25T05:18:58.145Z,70.50
2018-05-25T05:19:30.715Z,70.50
2018-05-25T05:20:03.252Z,70.70
2018-05-25T05:20:35.822Z,70.80
2018-05-25T05:21:08.372Z,70.90
2018-05-25T05:21:40.918Z,71.20
2018-05-25T05:22:13.453Z,70.40
2018-05-25T05:22:46.007Z,70.50
2018-05-25T05:23:19.326Z,70.30
2018-05-25T05:23:51.863Z,71.00
2018-05-25T05:24:24.442Z,70.50
2018-05-25T05:24:57.005Z,70.50
2018-05-25T05:25:29.566Z,70.40
2018-05-25T05:26:02.143Z,70.00
2018-05-25T05:26:34.701Z,69.90
2018-05-25T05:27:07.251Z,70.00
2018-05-25T05:27:39.838Z,70.10
2018-05-25T05:28:12.367Z,70.20
2018-05-25T05:28:45.656Z,70.10
2018-05-25T05:29:18.220Z,70.10
2018-05-25T05:29:50.758Z,70.40
2018-05-25T05:30:23.278Z,70.30
2018-05-25T05:30:55.799Z,70.80
2018-05-25T05:31:29.120Z,70.10
2018-05-25T05:32:01.656Z,70.20
2018-05-25T05:32:34.219Z,70.20
2018-05-25T05:33:06.766Z,70.30
2018-05-25T05:33:39.381Z,70.30
2018-05-25T05:34:11.908Z,70.10
2018-05-25T05:34:44.473Z,69.90
2018-05-25T05:35:17.004Z,69.90
2018-05-25T05:35:49.553Z,69.80
2018-05-25T05:36:22.136Z,69.90
2018-05-25T05:36:54.700Z,69.80
2018-05-25T05:37:27.224Z,69.80
2018-05-25T05:37:59.853Z,69.90
2018-05-25T05:38:32.395Z,70.00
2018-05-25T05:39:05.666Z,70.20
2018-05-25T05:39:38.211Z,70.30
2018-05-25T05:40:10.772Z,70.60
2018-05-25T05:40:43.319Z,70.50
2018-05-25T05:41:15.877Z,70.80
2018-05-25T05:41:48.423Z,70.40
2018-05-25T05:42:20.985Z,70.30
2018-05-25T05:42:53.516Z,69.90
2018-05-25T05:43:26.816Z,69.30
2018-05-25T05:43:59.343Z,69.50
2018-05-25T05:44:31.877Z,69.30
2018-05-25T05:45:04.430Z,69.30
2018-05-25T05:45:36.966Z,69.10
2018-05-25T05:46:09.543Z,69.30
2018-05-25T05:46:42.100Z,69.40
2018-05-25T05:47:14.624Z,69.10
2018-05-25T05:47:47.183Z,69.10
2018-05-25T05:48:19.731Z,69.30
2018-05-25T05:48:52.286Z,69.20
2018-05-25T05:49:24.828Z,69.10
2018-05-25T05:49:57.380Z,69.20
2018-05-25T05:50:29.919Z,69.20
2018-05-25T05:51:02.485Z,69.50
2018-05-25T05:51:35.040Z,70.20
2018-05-25T05:52:08.493Z,69.30
2018-05-25T05:52:41.044Z,68.80
2018-05-25T05:53:13.643Z,69.40
2018-05-25T05:53:46.196Z,69.30
2018-05-25T05:54:18.756Z,69.50
2018-05-25T05:54:51.316Z,70.00
2018-05-25T05:55:23.869Z,70.00
2018-05-25T05:55:56.412Z,70.20
2018-05-25T05:56:28.972Z,70.40
2018-05-25T05:57:01.538Z,70.60
2018-05-25T05:57:34.092Z,70.90
2018-05-25T05:58:06.647Z,71.20
2018-05-25T05:58:39.233Z,70.80
2018-05-25T05:59:11.795Z,70.50
2018-05-25T05:59:44.366Z,70.30
2018-05-25T06:00:16.913Z,70.00
2018-05-25T06:00:49.479Z,70.40
2018-05-25T06:01:22.016Z,70.70
2018-05-25T06:01:55.304Z,70.90
2018-05-25T06:02:27.844Z,70.90
2018-05-25T06:03:00.382Z,70.80
2018-05-25T06:03:33.001Z,70.90
2018-05-25T06:04:05.541Z,70.90
2018-05-25T06:04:38.094Z,71.10
2018-05-25T06:05:10.625Z,71.10
2018-05-25T06:05:43.181Z,70.90
2018-05-25T06:06:15.744Z,71.10
2018-05-25T06:06:48.302Z,69.80
2018-05-25T06:07:20.828Z,69.60
2018-05-25T06:07:54.153Z,69.30
2018-05-25T06:08:26.708Z,69.50
2018-05-25T06:08:59.263Z,69.70
2018-05-25T06:09:31.822Z,70.00
2018-05-25T06:10:04.343Z,70.90
2018-05-25T06:10:36.884Z,70.40
2018-05-25T06:11:09.451Z,70.20
2018-05-25T06:11:41.985Z,70.00
2018-05-25T06:12:14.555Z,70.40
2018-05-25T06:12:47.134Z,70.70
2018-05-25T06:13:19.706Z,70.90
2018-05-25T06:13:52.237Z,70.50
2018-05-25T06:14:24.781Z,70.50
2018-05-25T06:14:57.354Z,70.30
2018-05-25T06:15:29.920Z,70.00
2018-05-25T06:16:02.476Z,69.90
2018-05-25T06:16:35.828Z,69.60
2018-05-25T06:17:08.380Z,69.80
2018-05-25T06:17:40.956Z,69.80
2018-05-25T06:18:13.502Z,69.70
2018-05-25T06:18:46.053Z,69.80
2018-05-25T06:19:18.632Z,69.80
2018-05-25T06:19:51.155Z,69.70
2018-05-25T06:20:23.701Z,69.60
2018-05-25T06:20:56.301Z,69.80
2018-05-25T06:21:28.844Z,69.90
2018-05-25T06:22:01.368Z,70.00
2018-05-25T06:22:33.901Z,69.90
2018-05-25T06:23:06.455Z,69.80
2018-05-25T06:23:38.989Z,69.70
2018-05-25T06:24:11.535Z,69.70
2018-05-25T06:24:44.099Z,69.70
2018-05-25T06:25:17.475Z,70.30
2018-05-25T06:25:50.023Z,70.20
2018-05-25T06:26:23.361Z,70.10
2018-05-25T06:26:55.886Z,70.10
2018-05-25T06:27:28.431Z,70.30
2018-05-25T06:28:01.013Z,71.00
2018-05-25T06:28:33.576Z,70.20
2018-05-25T06:29:06.110Z,70.60
2018-05-25T06:29:38.644Z,70.20
2018-05-25T06:30:11.210Z,69.90
2018-05-25T06:30:43.737Z,70.00
2018-05-25T06:31:16.289Z,70.20
2018-05-25T06:31:48.811Z,70.20
2018-05-25T06:32:21.367Z,70.10
2018-05-25T06:32:53.915Z,70.00
2018-05-25T06:33:26.504Z,70.10
2018-05-25T06:33:59.055Z,70.30
2018-05-25T06:34:31.608Z,70.80
2018-05-25T06:35:04.160Z,70.90
2018-05-25T06:35:36.708Z,70.50
2018-05-25T06:36:09.248Z,70.20
2018-05-25T06:36:42.539Z,70.20
2018-05-25T06:37:15.099Z,70.40
2018-05-25T06:37:47.645Z,70.30
2018-05-25T06:38:20.205Z,70.30
2018-05-25T06:38:52.785Z,70.20
2018-05-25T06:39:25.343Z,70.30
2018-05-25T06:39:57.957Z,70.20
2018-05-25T06:40:30.549Z,70.10
2018-05-25T06:41:03.104Z,70.10
2018-05-25T06:41:35.644Z,70.20
2018-05-25T06:42:08.209Z,70.10
2018-05-25T06:42:40.740Z,70.10
2018-05-25T06:43:13.293Z,70.30
2018-05-25T06:43:45.820Z,70.20
2018-05-25T06:44:18.424Z,70.10
2018-05-25T06:44:50.964Z,70.80
2018-05-25T06:45:23.516Z,70.20
2018-05-25T06:45:56.041Z,70.20
2018-05-25T06:46:28.621Z,70.00
2018-05-25T06:47:01.217Z,69.80
2018-05-25T06:47:33.763Z,69.80
2018-05-25T06:48:06.376Z,69.90
2018-05-25T06:48:38.930Z,69.90
2018-05-25T06:49:11.513Z,70.00
2018-05-25T06:49:44.061Z,70.10
2018-05-25T06:50:17.379Z,70.60
2018-05-25T06:50:49.912Z,70.70
2018-05-25T06:51:22.458Z,70.60
2018-05-25T06:51:54.987Z,70.60
2018-05-25T06:52:27.511Z,70.50
2018-05-25T06:53:00.052Z,70.20
2018-05-25T06:53:32.576Z,69.90
2018-05-25T06:54:05.130Z,70.10
2018-05-25T06:54:37.679Z,70.00
2018-05-25T06:55:10.815Z,69.80
2018-05-25T06:55:43.356Z,69.50
2018-05-25T06:56:15.902Z,70.20
2018-05-25T06:56:48.463Z,69.50
2018-05-25T06:57:20.992Z,69.60
2018-05-25T06:57:53.585Z,69.60
2018-05-25T06:58:26.099Z,69.70
2018-05-25T06:58:58.797Z,69.70
2018-05-25T06:59:31.941Z,69.40
2018-05-25T07:00:04.487Z,69.40
2018-05-25T07:00:37.043Z,69.60
2018-05-25T07:01:09.563Z,69.30